sensor_id;sensor_type;location;lat;lon;timestamp;temperature;humidity
43906;DHT22;29564;46.622;13.818;2022-07-22T00:00:33;25.00;76.90
43906;DHT22;29564;46.622;13.818;2022-07-22T00:01:34;25.00;76.50
43906;DHT22;29564;46.622;13.818;2022-07-22T00:02:35;24.80;77.80
43906;DHT22;29564;46.622;13.818;2022-07-22T00:03:36;24.70;77.70
43906;DHT22;29564;46.622;13.818;2022-07-22T00:04:37;24.80;78.00
43906;DHT22;29564;46.622;13.818;2022-07-22T00:05:38;24.80;78.30
43906;DHT22;29564;46.622;13.818;2022-07-22T00:06:39;24.70;78.10
43906;DHT22;29564;46.622;13.818;2022-07-22T00:07:40;24.70;78.20
43906;DHT22;29564;46.622;13.818;2022-07-22T00:08:41;24.70;78.30
43906;DHT22;29564;46.622;13.818;2022-07-22T00:09:42;24.70;78.30
43906;DHT22;29564;46.622;13.818;2022-07-22T00:10:43;24.80;78.90
43906;DHT22;29564;46.622;13.818;2022-07-22T00:11:44;24.80;78.10
43906;DHT22;29564;46.622;13.818;2022-07-22T00:12:45;24.90;78.50
43906;DHT22;29564;46.622;13.818;2022-07-22T00:13:46;25.00;77.70
43906;DHT22;29564;46.622;13.818;2022-07-22T00:14:47;25.10;77.30
43906;DHT22;29564;46.622;13.818;2022-07-22T00:15:48;25.00;78.80
43906;DHT22;29564;46.622;13.818;2022-07-22T00:16:49;24.90;77.60
43906;DHT22;29564;46.622;13.818;2022-07-22T00:17:50;24.90;77.80
43906;DHT22;29564;46.622;13.818;2022-07-22T00:18:51;24.90;77.40
43906;DHT22;29564;46.622;13.818;2022-07-22T00:19:52;24.80;77.90
43906;DHT22;29564;46.622;13.818;2022-07-22T00:20:52;24.80;78.30
43906;DHT22;29564;46.622;13.818;2022-07-22T00:21:53;24.80;78.30
43906;DHT22;29564;46.622;13.818;2022-07-22T00:22:54;24.80;78.20
43906;DHT22;29564;46.622;13.818;2022-07-22T00:23:55;24.80;78.80
43906;DHT22;29564;46.622;13.818;2022-07-22T00:24:56;24.70;78.40
43906;DHT22;29564;46.622;13.818;2022-07-22T00:25:57;24.60;78.60
43906;DHT22;29564;46.622;13.818;2022-07-22T00:26:58;24.70;79.20
43906;DHT22;29564;46.622;13.818;2022-07-22T00:27:59;24.70;78.20
43906;DHT22;29564;46.622;13.818;2022-07-22T00:29:00;24.70;78.70
43906;DHT22;29564;46.622;13.818;2022-07-22T00:30:02;24.80;78.70
43906;DHT22;29564;46.622;13.818;2022-07-22T00:31:03;24.80;78.80
43906;DHT22;29564;46.622;13.818;2022-07-22T00:32:04;24.80;78.30
43906;DHT22;29564;46.622;13.818;2022-07-22T00:33:06;24.80;78.50
43906;DHT22;29564;46.622;13.818;2022-07-22T00:34:07;24.80;79.30
43906;DHT22;29564;46.622;13.818;2022-07-22T00:35:08;24.80;78.80
43906;DHT22;29564;46.622;13.818;2022-07-22T00:36:09;24.70;79.50
43906;DHT22;29564;46.622;13.818;2022-07-22T00:37:10;24.70;78.50
43906;DHT22;29564;46.622;13.818;2022-07-22T00:38:11;24.50;79.00
43906;DHT22;29564;46.622;13.818;2022-07-22T00:39:12;24.50;79.90
43906;DHT22;29564;46.622;13.818;2022-07-22T00:40:13;24.40;80.50
43906;DHT22;29564;46.622;13.818;2022-07-22T00:41:14;24.60;80.40
43906;DHT22;29564;46.622;13.818;2022-07-22T00:42:15;24.70;79.10
43906;DHT22;29564;46.622;13.818;2022-07-22T00:43:16;24.60;80.40
43906;DHT22;29564;46.622;13.818;2022-07-22T00:44:17;24.80;78.90
43906;DHT22;29564;46.622;13.818;2022-07-22T00:45:18;24.70;79.30
43906;DHT22;29564;46.622;13.818;2022-07-22T00:46:19;24.60;80.10
43906;DHT22;29564;46.622;13.818;2022-07-22T00:47:20;24.80;80.10
43906;DHT22;29564;46.622;13.818;2022-07-22T00:48:21;24.80;80.00
43906;DHT22;29564;46.622;13.818;2022-07-22T00:49:22;24.70;79.60
43906;DHT22;29564;46.622;13.818;2022-07-22T00:50:23;24.70;79.90
43906;DHT22;29564;46.622;13.818;2022-07-22T00:51:25;24.80;81.10
43906;DHT22;29564;46.622;13.818;2022-07-22T00:52:26;24.90;80.10
43906;DHT22;29564;46.622;13.818;2022-07-22T00:53:27;24.90;79.00
43906;DHT22;29564;46.622;13.818;2022-07-22T00:54:28;24.90;79.30
43906;DHT22;29564;46.622;13.818;2022-07-22T00:55:30;24.90;80.10
43906;DHT22;29564;46.622;13.818;2022-07-22T00:56:33;24.80;79.30
43906;DHT22;29564;46.622;13.818;2022-07-22T00:57:34;24.70;79.60
43906;DHT22;29564;46.622;13.818;2022-07-22T00:58:35;24.60;80.90
43906;DHT22;29564;46.622;13.818;2022-07-22T00:59:36;24.60;80.50
43906;DHT22;29564;46.622;13.818;2022-07-22T01:00:37;24.60;80.10
43906;DHT22;29564;46.622;13.818;2022-07-22T01:01:38;24.30;80.60
43906;DHT22;29564;46.622;13.818;2022-07-22T01:02:39;24.20;81.10
43906;DHT22;29564;46.622;13.818;2022-07-22T01:03:40;24.20;81.10
43906;DHT22;29564;46.622;13.818;2022-07-22T01:04:41;24.30;82.70
43906;DHT22;29564;46.622;13.818;2022-07-22T01:05:42;24.40;81.50
43906;DHT22;29564;46.622;13.818;2022-07-22T01:06:43;24.50;82.20
43906;DHT22;29564;46.622;13.818;2022-07-22T01:07:50;24.50;81.60
43906;DHT22;29564;46.622;13.818;2022-07-22T01:08:51;24.50;81.10
43906;DHT22;29564;46.622;13.818;2022-07-22T01:09:51;24.60;81.70
43906;DHT22;29564;46.622;13.818;2022-07-22T01:10:52;24.70;81.20
43906;DHT22;29564;46.622;13.818;2022-07-22T01:11:53;24.70;81.30
43906;DHT22;29564;46.622;13.818;2022-07-22T01:12:54;24.80;82.30
43906;DHT22;29564;46.622;13.818;2022-07-22T01:13:56;24.70;80.40
43906;DHT22;29564;46.622;13.818;2022-07-22T01:14:57;24.70;79.90
43906;DHT22;29564;46.622;13.818;2022-07-22T01:15:58;24.60;80.70
43906;DHT22;29564;46.622;13.818;2022-07-22T01:17:00;24.60;81.60
43906;DHT22;29564;46.622;13.818;2022-07-22T01:18:01;24.70;81.10
43906;DHT22;29564;46.622;13.818;2022-07-22T01:19:02;24.70;81.10
43906;DHT22;29564;46.622;13.818;2022-07-22T01:20:04;24.70;81.00
43906;DHT22;29564;46.622;13.818;2022-07-22T01:21:05;24.60;80.20
43906;DHT22;29564;46.622;13.818;2022-07-22T01:22:07;24.60;82.40
43906;DHT22;29564;46.622;13.818;2022-07-22T01:23:08;24.50;81.10
43906;DHT22;29564;46.622;13.818;2022-07-22T01:24:09;24.60;81.40
43906;DHT22;29564;46.622;13.818;2022-07-22T01:25:10;24.60;82.10
43906;DHT22;29564;46.622;13.818;2022-07-22T01:26:11;24.60;81.20
43906;DHT22;29564;46.622;13.818;2022-07-22T01:27:12;24.60;81.70
43906;DHT22;29564;46.622;13.818;2022-07-22T01:28:13;24.60;81.20
43906;DHT22;29564;46.622;13.818;2022-07-22T01:29:15;24.60;82.40
43906;DHT22;29564;46.622;13.818;2022-07-22T01:30:16;24.60;80.50
43906;DHT22;29564;46.622;13.818;2022-07-22T01:31:17;24.60;80.60
43906;DHT22;29564;46.622;13.818;2022-07-22T01:32:18;24.60;83.20
43906;DHT22;29564;46.622;13.818;2022-07-22T01:33:19;24.60;81.60
43906;DHT22;29564;46.622;13.818;2022-07-22T01:34:20;24.70;81.00
43906;DHT22;29564;46.622;13.818;2022-07-22T01:35:21;24.60;80.80
43906;DHT22;29564;46.622;13.818;2022-07-22T01:36:22;24.50;82.10
43906;DHT22;29564;46.622;13.818;2022-07-22T01:37:23;24.50;80.60
43906;DHT22;29564;46.622;13.818;2022-07-22T01:38:24;24.50;82.50
43906;DHT22;29564;46.622;13.818;2022-07-22T01:39:25;24.50;80.80
43906;DHT22;29564;46.622;13.818;2022-07-22T01:40:26;24.40;80.50
43906;DHT22;29564;46.622;13.818;2022-07-22T01:41:27;24.40;82.90
43906;DHT22;29564;46.622;13.818;2022-07-22T01:42:28;24.50;81.80
43906;DHT22;29564;46.622;13.818;2022-07-22T01:43:29;24.40;81.50
43906;DHT22;29564;46.622;13.818;2022-07-22T01:44:31;24.50;83.40
43906;DHT22;29564;46.622;13.818;2022-07-22T01:45:32;24.40;80.70
43906;DHT22;29564;46.622;13.818;2022-07-22T01:46:33;24.50;82.20
43906;DHT22;29564;46.622;13.818;2022-07-22T01:47:34;24.60;80.80
43906;DHT22;29564;46.622;13.818;2022-07-22T01:48:35;24.50;81.60
43906;DHT22;29564;46.622;13.818;2022-07-22T01:49:36;24.50;82.00
43906;DHT22;29564;46.622;13.818;2022-07-22T01:50:37;24.50;81.50
43906;DHT22;29564;46.622;13.818;2022-07-22T01:51:38;24.40;82.70
43906;DHT22;29564;46.622;13.818;2022-07-22T01:52:39;24.40;82.20
43906;DHT22;29564;46.622;13.818;2022-07-22T01:53:40;24.40;82.10
43906;DHT22;29564;46.622;13.818;2022-07-22T01:54:41;24.40;81.50
43906;DHT22;29564;46.622;13.818;2022-07-22T01:55:41;24.40;82.80
43906;DHT22;29564;46.622;13.818;2022-07-22T01:56:43;24.40;82.70
43906;DHT22;29564;46.622;13.818;2022-07-22T01:57:44;24.40;84.50
43906;DHT22;29564;46.622;13.818;2022-07-22T01:58:45;24.50;82.60
43906;DHT22;29564;46.622;13.818;2022-07-22T01:59:45;24.40;82.00
43906;DHT22;29564;46.622;13.818;2022-07-22T02:00:47;24.40;82.90
43906;DHT22;29564;46.622;13.818;2022-07-22T02:01:48;24.30;81.90
43906;DHT22;29564;46.622;13.818;2022-07-22T02:02:49;24.20;83.30
43906;DHT22;29564;46.622;13.818;2022-07-22T02:03:50;24.10;83.10
43906;DHT22;29564;46.622;13.818;2022-07-22T02:04:51;24.20;83.30
43906;DHT22;29564;46.622;13.818;2022-07-22T02:05:52;24.20;85.10
43906;DHT22;29564;46.622;13.818;2022-07-22T02:06:53;24.30;83.90
43906;DHT22;29564;46.622;13.818;2022-07-22T02:07:58;24.30;82.60
43906;DHT22;29564;46.622;13.818;2022-07-22T02:08:59;24.20;83.00
43906;DHT22;29564;46.622;13.818;2022-07-22T02:10:00;24.20;84.20
43906;DHT22;29564;46.622;13.818;2022-07-22T02:11:01;24.40;84.90
43906;DHT22;29564;46.622;13.818;2022-07-22T02:12:02;24.30;83.20
43906;DHT22;29564;46.622;13.818;2022-07-22T02:13:03;24.30;82.90
43906;DHT22;29564;46.622;13.818;2022-07-22T02:14:04;24.10;83.80
43906;DHT22;29564;46.622;13.818;2022-07-22T02:15:05;24.10;84.30
43906;DHT22;29564;46.622;13.818;2022-07-22T02:16:06;24.20;83.10
43906;DHT22;29564;46.622;13.818;2022-07-22T02:17:07;24.10;85.00
43906;DHT22;29564;46.622;13.818;2022-07-22T02:18:09;24.20;83.60
43906;DHT22;29564;46.622;13.818;2022-07-22T02:19:11;24.10;84.90
43906;DHT22;29564;46.622;13.818;2022-07-22T02:20:12;24.10;85.30
43906;DHT22;29564;46.622;13.818;2022-07-22T02:21:13;24.20;84.20
43906;DHT22;29564;46.622;13.818;2022-07-22T02:22:14;24.10;84.70
43906;DHT22;29564;46.622;13.818;2022-07-22T02:23:15;24.10;84.20
43906;DHT22;29564;46.622;13.818;2022-07-22T02:24:16;24.00;84.70
43906;DHT22;29564;46.622;13.818;2022-07-22T02:25:17;24.00;85.00
43906;DHT22;29564;46.622;13.818;2022-07-22T02:26:18;24.10;85.00
43906;DHT22;29564;46.622;13.818;2022-07-22T02:27:19;24.00;85.80
43906;DHT22;29564;46.622;13.818;2022-07-22T02:28:20;24.00;86.00
43906;DHT22;29564;46.622;13.818;2022-07-22T02:29:21;24.00;85.20
43906;DHT22;29564;46.622;13.818;2022-07-22T02:30:22;24.00;85.30
43906;DHT22;29564;46.622;13.818;2022-07-22T02:31:23;24.00;84.60
43906;DHT22;29564;46.622;13.818;2022-07-22T02:32:24;23.90;84.90
43906;DHT22;29564;46.622;13.818;2022-07-22T02:33:25;23.90;85.30
43906;DHT22;29564;46.622;13.818;2022-07-22T02:34:26;23.90;85.60
43906;DHT22;29564;46.622;13.818;2022-07-22T02:35:27;23.90;85.70
43906;DHT22;29564;46.622;13.818;2022-07-22T02:36:28;24.00;86.40
43906;DHT22;29564;46.622;13.818;2022-07-22T02:37:29;24.10;86.20
43906;DHT22;29564;46.622;13.818;2022-07-22T02:38:30;24.20;86.40
43906;DHT22;29564;46.622;13.818;2022-07-22T02:39:31;24.30;86.00
43906;DHT22;29564;46.622;13.818;2022-07-22T02:40:32;24.40;85.90
43906;DHT22;29564;46.622;13.818;2022-07-22T02:41:33;24.20;85.60
43906;DHT22;29564;46.622;13.818;2022-07-22T02:42:34;24.10;86.60
43906;DHT22;29564;46.622;13.818;2022-07-22T02:43:35;24.20;85.00
43906;DHT22;29564;46.622;13.818;2022-07-22T02:44:36;24.00;86.00
43906;DHT22;29564;46.622;13.818;2022-07-22T02:45:37;24.00;87.60
43906;DHT22;29564;46.622;13.818;2022-07-22T02:46:38;24.00;84.90
43906;DHT22;29564;46.622;13.818;2022-07-22T02:47:49;24.00;87.70
43906;DHT22;29564;46.622;13.818;2022-07-22T02:48:50;24.00;86.80
43906;DHT22;29564;46.622;13.818;2022-07-22T02:49:51;24.00;86.00
43906;DHT22;29564;46.622;13.818;2022-07-22T02:50:52;23.90;85.70
43906;DHT22;29564;46.622;13.818;2022-07-22T02:51:53;23.80;86.80
43906;DHT22;29564;46.622;13.818;2022-07-22T02:52:54;23.80;87.30
43906;DHT22;29564;46.622;13.818;2022-07-22T02:53:55;23.80;87.20
43906;DHT22;29564;46.622;13.818;2022-07-22T02:54:57;23.80;87.70
43906;DHT22;29564;46.622;13.818;2022-07-22T02:55:58;23.90;88.00
43906;DHT22;29564;46.622;13.818;2022-07-22T02:56:59;23.90;87.40
43906;DHT22;29564;46.622;13.818;2022-07-22T02:58:03;23.90;88.00
43906;DHT22;29564;46.622;13.818;2022-07-22T02:59:04;23.90;87.00
43906;DHT22;29564;46.622;13.818;2022-07-22T03:00:06;23.90;87.20
43906;DHT22;29564;46.622;13.818;2022-07-22T03:01:09;23.80;87.40
43906;DHT22;29564;46.622;13.818;2022-07-22T03:02:10;23.80;88.10
43906;DHT22;29564;46.622;13.818;2022-07-22T03:03:10;23.70;87.60
43906;DHT22;29564;46.622;13.818;2022-07-22T03:04:11;23.70;88.10
43906;DHT22;29564;46.622;13.818;2022-07-22T03:05:12;23.80;90.10
43906;DHT22;29564;46.622;13.818;2022-07-22T03:06:13;23.80;88.00
43906;DHT22;29564;46.622;13.818;2022-07-22T03:07:15;23.80;88.60
43906;DHT22;29564;46.622;13.818;2022-07-22T03:08:16;23.80;87.30
43906;DHT22;29564;46.622;13.818;2022-07-22T03:09:17;23.90;88.40
43906;DHT22;29564;46.622;13.818;2022-07-22T03:10:18;23.90;88.00
43906;DHT22;29564;46.622;13.818;2022-07-22T03:11:18;24.00;87.00
43906;DHT22;29564;46.622;13.818;2022-07-22T03:12:19;23.90;88.30
43906;DHT22;29564;46.622;13.818;2022-07-22T03:13:20;24.00;88.90
43906;DHT22;29564;46.622;13.818;2022-07-22T03:14:21;24.00;88.80
43906;DHT22;29564;46.622;13.818;2022-07-22T03:15:22;24.00;87.50
43906;DHT22;29564;46.622;13.818;2022-07-22T03:16:23;24.00;86.70
43906;DHT22;29564;46.622;13.818;2022-07-22T03:17:24;24.00;86.70
43906;DHT22;29564;46.622;13.818;2022-07-22T03:18:25;24.00;87.20
43906;DHT22;29564;46.622;13.818;2022-07-22T03:19:26;23.90;88.10
43906;DHT22;29564;46.622;13.818;2022-07-22T03:20:27;24.10;85.50
43906;DHT22;29564;46.622;13.818;2022-07-22T03:21:28;24.00;88.50
43906;DHT22;29564;46.622;13.818;2022-07-22T03:22:29;23.90;87.30
43906;DHT22;29564;46.622;13.818;2022-07-22T03:23:30;24.00;87.40
43906;DHT22;29564;46.622;13.818;2022-07-22T03:24:31;24.00;88.00
43906;DHT22;29564;46.622;13.818;2022-07-22T03:25:32;23.90;86.40
43906;DHT22;29564;46.622;13.818;2022-07-22T03:26:33;23.90;87.80
43906;DHT22;29564;46.622;13.818;2022-07-22T03:27:34;23.90;88.50
43906;DHT22;29564;46.622;13.818;2022-07-22T03:28:35;23.90;86.40
43906;DHT22;29564;46.622;13.818;2022-07-22T03:29:36;23.80;88.60
43906;DHT22;29564;46.622;13.818;2022-07-22T03:30:37;23.90;88.10
43906;DHT22;29564;46.622;13.818;2022-07-22T03:31:38;23.80;87.30
43906;DHT22;29564;46.622;13.818;2022-07-22T03:32:38;23.80;87.10
43906;DHT22;29564;46.622;13.818;2022-07-22T03:33:45;23.90;89.00
43906;DHT22;29564;46.622;13.818;2022-07-22T03:34:46;23.90;86.70
43906;DHT22;29564;46.622;13.818;2022-07-22T03:35:47;23.90;88.50
43906;DHT22;29564;46.622;13.818;2022-07-22T03:36:48;23.90;88.40
43906;DHT22;29564;46.622;13.818;2022-07-22T03:37:49;23.90;87.30
43906;DHT22;29564;46.622;13.818;2022-07-22T03:38:50;23.90;87.00
43906;DHT22;29564;46.622;13.818;2022-07-22T03:39:51;23.90;87.50
43906;DHT22;29564;46.622;13.818;2022-07-22T03:40:52;23.90;88.00
43906;DHT22;29564;46.622;13.818;2022-07-22T03:41:53;23.90;89.00
43906;DHT22;29564;46.622;13.818;2022-07-22T03:42:54;23.90;89.30
43906;DHT22;29564;46.622;13.818;2022-07-22T03:43:55;23.90;88.00
43906;DHT22;29564;46.622;13.818;2022-07-22T03:44:56;23.90;88.40
43906;DHT22;29564;46.622;13.818;2022-07-22T03:45:57;23.80;87.30
43906;DHT22;29564;46.622;13.818;2022-07-22T03:46:58;23.70;88.80
43906;DHT22;29564;46.622;13.818;2022-07-22T03:47:59;23.60;90.10
43906;DHT22;29564;46.622;13.818;2022-07-22T03:48:59;23.70;87.90
43906;DHT22;29564;46.622;13.818;2022-07-22T03:50:00;23.60;89.70
43906;DHT22;29564;46.622;13.818;2022-07-22T03:51:02;23.60;88.70
43906;DHT22;29564;46.622;13.818;2022-07-22T03:52:03;23.60;89.20
43906;DHT22;29564;46.622;13.818;2022-07-22T03:53:04;23.60;90.30
43906;DHT22;29564;46.622;13.818;2022-07-22T03:54:05;23.70;88.80
43906;DHT22;29564;46.622;13.818;2022-07-22T03:55:06;23.60;90.30
43906;DHT22;29564;46.622;13.818;2022-07-22T03:56:07;23.70;87.90
43906;DHT22;29564;46.622;13.818;2022-07-22T03:57:08;23.70;89.80
43906;DHT22;29564;46.622;13.818;2022-07-22T03:58:10;23.80;90.00
43906;DHT22;29564;46.622;13.818;2022-07-22T03:59:11;23.80;89.90
43906;DHT22;29564;46.622;13.818;2022-07-22T04:00:12;23.80;89.30
43906;DHT22;29564;46.622;13.818;2022-07-22T04:01:13;23.90;88.90
43906;DHT22;29564;46.622;13.818;2022-07-22T04:02:14;23.70;87.50
43906;DHT22;29564;46.622;13.818;2022-07-22T04:03:15;23.70;88.00
43906;DHT22;29564;46.622;13.818;2022-07-22T04:04:16;23.70;89.00
43906;DHT22;29564;46.622;13.818;2022-07-22T04:05:16;23.80;88.70
43906;DHT22;29564;46.622;13.818;2022-07-22T04:06:17;23.80;89.60
43906;DHT22;29564;46.622;13.818;2022-07-22T04:07:18;23.80;88.70
43906;DHT22;29564;46.622;13.818;2022-07-22T04:08:19;23.80;88.60
43906;DHT22;29564;46.622;13.818;2022-07-22T04:09:21;23.90;89.50
43906;DHT22;29564;46.622;13.818;2022-07-22T04:10:22;23.80;88.40
43906;DHT22;29564;46.622;13.818;2022-07-22T04:11:23;23.80;89.00
43906;DHT22;29564;46.622;13.818;2022-07-22T04:12:24;23.90;89.90
43906;DHT22;29564;46.622;13.818;2022-07-22T04:13:25;23.80;87.40
43906;DHT22;29564;46.622;13.818;2022-07-22T04:14:26;23.70;86.80
43906;DHT22;29564;46.622;13.818;2022-07-22T04:15:27;23.60;87.30
43906;DHT22;29564;46.622;13.818;2022-07-22T04:16:28;23.50;89.10
43906;DHT22;29564;46.622;13.818;2022-07-22T04:17:29;23.70;87.90
43906;DHT22;29564;46.622;13.818;2022-07-22T04:18:30;23.70;90.20
43906;DHT22;29564;46.622;13.818;2022-07-22T04:19:31;23.70;85.90
43906;DHT22;29564;46.622;13.818;2022-07-22T04:20:32;23.70;86.90
43906;DHT22;29564;46.622;13.818;2022-07-22T04:21:33;23.70;87.30
43906;DHT22;29564;46.622;13.818;2022-07-22T04:22:34;23.70;88.60
43906;DHT22;29564;46.622;13.818;2022-07-22T04:23:35;23.70;88.60
43906;DHT22;29564;46.622;13.818;2022-07-22T04:24:36;23.80;89.10
43906;DHT22;29564;46.622;13.818;2022-07-22T04:25:37;23.70;87.10
43906;DHT22;29564;46.622;13.818;2022-07-22T04:26:38;23.80;88.40
43906;DHT22;29564;46.622;13.818;2022-07-22T04:27:39;23.80;89.30
43906;DHT22;29564;46.622;13.818;2022-07-22T04:28:40;23.80;87.10
43906;DHT22;29564;46.622;13.818;2022-07-22T04:29:41;24.40;88.00
43906;DHT22;29564;46.622;13.818;2022-07-22T04:30:42;23.70;89.50
43906;DHT22;29564;46.622;13.818;2022-07-22T04:31:43;23.70;86.60
43906;DHT22;29564;46.622;13.818;2022-07-22T04:32:44;23.60;88.20
43906;DHT22;29564;46.622;13.818;2022-07-22T04:33:45;23.70;89.00
43906;DHT22;29564;46.622;13.818;2022-07-22T04:34:46;23.70;89.10
43906;DHT22;29564;46.622;13.818;2022-07-22T04:35:47;23.80;89.10
43906;DHT22;29564;46.622;13.818;2022-07-22T04:36:48;23.80;86.90
43906;DHT22;29564;46.622;13.818;2022-07-22T04:37:48;23.80;87.70
43906;DHT22;29564;46.622;13.818;2022-07-22T04:38:49;23.80;86.20
43906;DHT22;29564;46.622;13.818;2022-07-22T04:39:52;23.80;88.30
43906;DHT22;29564;46.622;13.818;2022-07-22T04:40:52;23.80;85.80
43906;DHT22;29564;46.622;13.818;2022-07-22T04:41:54;23.80;87.60
43906;DHT22;29564;46.622;13.818;2022-07-22T04:42:54;23.70;87.10
43906;DHT22;29564;46.622;13.818;2022-07-22T04:43:55;23.60;88.20
43906;DHT22;29564;46.622;13.818;2022-07-22T04:44:56;23.70;88.70
43906;DHT22;29564;46.622;13.818;2022-07-22T04:45:57;23.80;86.70
43906;DHT22;29564;46.622;13.818;2022-07-22T04:46:58;23.70;88.70
43906;DHT22;29564;46.622;13.818;2022-07-22T04:47:59;23.80;89.70
43906;DHT22;29564;46.622;13.818;2022-07-22T04:49:00;23.80;89.80
43906;DHT22;29564;46.622;13.818;2022-07-22T04:50:01;23.90;86.70
43906;DHT22;29564;46.622;13.818;2022-07-22T04:51:02;23.80;89.10
43906;DHT22;29564;46.622;13.818;2022-07-22T04:52:03;23.80;87.20
43906;DHT22;29564;46.622;13.818;2022-07-22T04:53:04;23.90;87.00
43906;DHT22;29564;46.622;13.818;2022-07-22T04:54:05;23.80;86.10
43906;DHT22;29564;46.622;13.818;2022-07-22T04:55:06;23.60;87.60
43906;DHT22;29564;46.622;13.818;2022-07-22T04:56:07;23.70;87.70
43906;DHT22;29564;46.622;13.818;2022-07-22T04:57:08;23.70;88.50
43906;DHT22;29564;46.622;13.818;2022-07-22T04:58:09;23.70;87.90
43906;DHT22;29564;46.622;13.818;2022-07-22T04:59:10;23.70;88.60
43906;DHT22;29564;46.622;13.818;2022-07-22T05:00:11;23.60;88.30
43906;DHT22;29564;46.622;13.818;2022-07-22T05:01:12;23.50;88.70
43906;DHT22;29564;46.622;13.818;2022-07-22T05:02:13;23.40;87.70
43906;DHT22;29564;46.622;13.818;2022-07-22T05:03:14;23.40;88.80
43906;DHT22;29564;46.622;13.818;2022-07-22T05:04:15;23.40;88.50
43906;DHT22;29564;46.622;13.818;2022-07-22T05:05:16;23.50;89.60
43906;DHT22;29564;46.622;13.818;2022-07-22T05:06:18;23.50;87.70
43906;DHT22;29564;46.622;13.818;2022-07-22T05:07:19;23.60;88.60
43906;DHT22;29564;46.622;13.818;2022-07-22T05:08:19;23.70;89.60
43906;DHT22;29564;46.622;13.818;2022-07-22T05:09:20;23.70;87.50
43906;DHT22;29564;46.622;13.818;2022-07-22T05:10:22;23.50;88.00
43906;DHT22;29564;46.622;13.818;2022-07-22T05:11:22;23.50;88.10
43906;DHT22;29564;46.622;13.818;2022-07-22T05:12:23;23.50;90.10
43906;DHT22;29564;46.622;13.818;2022-07-22T05:13:24;23.50;90.50
43906;DHT22;29564;46.622;13.818;2022-07-22T05:14:25;23.50;90.00
43906;DHT22;29564;46.622;13.818;2022-07-22T05:15:26;23.40;90.30
43906;DHT22;29564;46.622;13.818;2022-07-22T05:16:27;23.50;88.60
43906;DHT22;29564;46.622;13.818;2022-07-22T05:17:28;23.40;90.00
43906;DHT22;29564;46.622;13.818;2022-07-22T05:18:29;23.30;89.20
43906;DHT22;29564;46.622;13.818;2022-07-22T05:19:30;23.40;90.10
43906;DHT22;29564;46.622;13.818;2022-07-22T05:20:31;23.50;90.20
43906;DHT22;29564;46.622;13.818;2022-07-22T05:21:32;23.50;90.30
43906;DHT22;29564;46.622;13.818;2022-07-22T05:22:33;23.50;90.20
43906;DHT22;29564;46.622;13.818;2022-07-22T05:23:34;23.60;89.00
43906;DHT22;29564;46.622;13.818;2022-07-22T05:24:35;23.70;89.10
43906;DHT22;29564;46.622;13.818;2022-07-22T05:25:36;23.60;87.90
43906;DHT22;29564;46.622;13.818;2022-07-22T05:26:37;23.60;89.60
43906;DHT22;29564;46.622;13.818;2022-07-22T05:27:38;23.70;90.20
43906;DHT22;29564;46.622;13.818;2022-07-22T05:28:39;23.80;88.90
43906;DHT22;29564;46.622;13.818;2022-07-22T05:29:40;23.80;89.10
43906;DHT22;29564;46.622;13.818;2022-07-22T05:30:41;23.90;89.30
43906;DHT22;29564;46.622;13.818;2022-07-22T05:31:42;23.80;87.70
43906;DHT22;29564;46.622;13.818;2022-07-22T05:32:43;23.80;88.00
43906;DHT22;29564;46.622;13.818;2022-07-22T05:33:44;23.70;88.00
43906;DHT22;29564;46.622;13.818;2022-07-22T05:34:44;23.70;89.50
43906;DHT22;29564;46.622;13.818;2022-07-22T05:35:46;23.80;90.10
43906;DHT22;29564;46.622;13.818;2022-07-22T05:36:46;23.80;88.70
43906;DHT22;29564;46.622;13.818;2022-07-22T05:37:47;23.80;88.50
43906;DHT22;29564;46.622;13.818;2022-07-22T05:38:48;23.90;89.40
43906;DHT22;29564;46.622;13.818;2022-07-22T05:39:49;23.90;89.10
43906;DHT22;29564;46.622;13.818;2022-07-22T05:40:51;23.90;89.50
43906;DHT22;29564;46.622;13.818;2022-07-22T05:41:52;23.90;89.70
43906;DHT22;29564;46.622;13.818;2022-07-22T05:42:53;24.00;90.10
43906;DHT22;29564;46.622;13.818;2022-07-22T05:43:54;24.00;90.00
43906;DHT22;29564;46.622;13.818;2022-07-22T05:44:55;23.90;88.00
43906;DHT22;29564;46.622;13.818;2022-07-22T05:45:55;23.90;89.50
43906;DHT22;29564;46.622;13.818;2022-07-22T05:46:56;23.80;89.10
43906;DHT22;29564;46.622;13.818;2022-07-22T05:47:57;23.90;89.40
43906;DHT22;29564;46.622;13.818;2022-07-22T05:48:58;23.90;89.80
43906;DHT22;29564;46.622;13.818;2022-07-22T05:49:59;23.90;88.60
43906;DHT22;29564;46.622;13.818;2022-07-22T05:51:00;23.70;87.70
43906;DHT22;29564;46.622;13.818;2022-07-22T05:52:01;23.70;87.70
43906;DHT22;29564;46.622;13.818;2022-07-22T05:53:02;23.70;89.40
43906;DHT22;29564;46.622;13.818;2022-07-22T05:54:03;23.80;89.20
43906;DHT22;29564;46.622;13.818;2022-07-22T05:55:05;23.80;90.20
43906;DHT22;29564;46.622;13.818;2022-07-22T05:56:06;23.80;89.40
43906;DHT22;29564;46.622;13.818;2022-07-22T05:57:08;23.80;89.90
43906;DHT22;29564;46.622;13.818;2022-07-22T05:58:10;23.80;90.00
43906;DHT22;29564;46.622;13.818;2022-07-22T05:59:11;23.90;90.10
43906;DHT22;29564;46.622;13.818;2022-07-22T06:00:12;23.90;89.30
43906;DHT22;29564;46.622;13.818;2022-07-22T06:01:13;23.90;88.50
43906;DHT22;29564;46.622;13.818;2022-07-22T06:02:14;23.90;90.00
43906;DHT22;29564;46.622;13.818;2022-07-22T06:03:15;23.90;90.00
43906;DHT22;29564;46.622;13.818;2022-07-22T06:04:16;23.90;89.70
43906;DHT22;29564;46.622;13.818;2022-07-22T06:05:17;24.00;89.90
43906;DHT22;29564;46.622;13.818;2022-07-22T06:06:18;24.00;90.00
43906;DHT22;29564;46.622;13.818;2022-07-22T06:07:19;23.90;89.30
43906;DHT22;29564;46.622;13.818;2022-07-22T06:08:20;24.00;89.80
43906;DHT22;29564;46.622;13.818;2022-07-22T06:09:21;24.00;89.90
43906;DHT22;29564;46.622;13.818;2022-07-22T06:10:21;24.00;90.10
43906;DHT22;29564;46.622;13.818;2022-07-22T06:11:22;23.90;90.10
43906;DHT22;29564;46.622;13.818;2022-07-22T06:12:23;24.00;90.10
43906;DHT22;29564;46.622;13.818;2022-07-22T06:13:25;24.00;90.20
43906;DHT22;29564;46.622;13.818;2022-07-22T06:14:26;24.10;89.00
43906;DHT22;29564;46.622;13.818;2022-07-22T06:15:26;24.00;89.80
43906;DHT22;29564;46.622;13.818;2022-07-22T06:16:27;24.00;90.00
43906;DHT22;29564;46.622;13.818;2022-07-22T06:17:28;24.00;90.30
43906;DHT22;29564;46.622;13.818;2022-07-22T06:18:29;24.00;89.40
43906;DHT22;29564;46.622;13.818;2022-07-22T06:19:30;24.00;88.40